OB1647 SBBE-SBEG
Flight info
| Callsign | OB1647 |
|---|---|
| Flight time | N/A |
| Altitude | 35000 |
| Route | DCT |
| Aircraft | B722/M-SDFG/C |
Departure
| Time | N/A |
|---|---|
| Airport | Val de Cans/Júlio Cezar Ribeiro International Airport (SBBE) |
Arrival
| Time | 2026-04-25 02:28 |
|---|---|
| Airport | Eduardo Gomes International Airport (SBEG) |
| Time | Latitude | Longitude | Altitude | Speed | Heading |
|---|---|---|---|---|---|
| 2026-04-25 01:09 | -1.59253 | -50.01556 | 24237 ft | 528 kts | 262° |
| 2026-04-25 01:09 | -1.59746 | -50.05221 | 24443 ft | 535 kts | 262° |
| 2026-04-25 01:09 | -1.60198 | -50.08585 | 24622 ft | 542 kts | 262° |
| 2026-04-25 01:09 | -1.60701 | -50.12337 | 24835 ft | 547 kts | 262° |
| 2026-04-25 01:10 | -1.61212 | -50.16089 | 25082 ft | 544 kts | 262° |
| 2026-04-25 01:10 | -1.61721 | -50.19828 | 25326 ft | 541 kts | 262° |
| 2026-04-25 01:10 | -1.62221 | -50.23545 | 25574 ft | 539 kts | 262° |
| 2026-04-25 01:10 | -1.62720 | -50.27254 | 25822 ft | 537 kts | 262° |
| 2026-04-25 01:11 | -1.63221 | -50.30952 | 26071 ft | 536 kts | 262° |
| 2026-04-25 01:11 | -1.63720 | -50.34639 | 26323 ft | 535 kts | 262° |
| 2026-04-25 01:11 | -1.64214 | -50.38319 | 26576 ft | 534 kts | 262° |
| 2026-04-25 01:11 | -1.64709 | -50.41997 | 26833 ft | 533 kts | 262° |
| 2026-04-25 01:12 | -1.65207 | -50.45672 | 27093 ft | 533 kts | 262° |
| 2026-04-25 01:12 | -1.65702 | -50.49334 | 27355 ft | 532 kts | 262° |
| 2026-04-25 01:12 | -1.66192 | -50.52975 | 27617 ft | 523 kts | 262° |
| 2026-04-25 01:12 | -1.66674 | -50.56542 | 27874 ft | 514 kts | 262° |
| 2026-04-25 01:13 | -1.67150 | -50.60056 | 28129 ft | 506 kts | 262° |
| 2026-04-25 01:13 | -1.67615 | -50.63512 | 28382 ft | 499 kts | 262° |
| 2026-04-25 01:13 | -1.68076 | -50.66929 | 28641 ft | 493 kts | 262° |
| 2026-04-25 01:13 | -1.68530 | -50.70301 | 28906 ft | 487 kts | 262° |
| 2026-04-25 01:14 | -1.68829 | -50.72516 | 29078 ft | 483 kts | 262° |
| 2026-04-25 01:14 | -1.69275 | -50.75828 | 29345 ft | 478 kts | 262° |
| 2026-04-25 01:14 | -1.69717 | -50.79106 | 29614 ft | 474 kts | 262° |
| 2026-04-25 01:14 | -1.70154 | -50.82351 | 29885 ft | 469 kts | 262° |
| 2026-04-25 01:15 | -1.70589 | -50.85584 | 29970 ft | 470 kts | 262° |
| 2026-04-25 01:15 | -1.71464 | -50.92091 | 29971 ft | 474 kts | 262° |
| 2026-04-25 01:16 | -1.72345 | -50.98648 | 29975 ft | 477 kts | 262° |
| 2026-04-25 01:16 | -1.73231 | -51.05233 | 29978 ft | 480 kts | 262° |
| 2026-04-25 01:17 | -1.74121 | -51.11854 | 29978 ft | 482 kts | 262° |
| 2026-04-25 01:17 | -1.75015 | -51.18506 | 29982 ft | 484 kts | 262° |
| 2026-04-25 01:18 | -1.75911 | -51.25180 | 29980 ft | 485 kts | 262° |
| 2026-04-25 01:18 | -1.76811 | -51.31877 | 29980 ft | 487 kts | 262° |
| 2026-04-25 01:19 | -1.77711 | -51.38583 | 29978 ft | 487 kts | 263° |
| 2026-04-25 01:19 | -1.78613 | -51.45297 | 29978 ft | 488 kts | 263° |
| 2026-04-25 01:20 | -1.79508 | -51.51973 | 29977 ft | 488 kts | 262° |
| 2026-04-25 01:20 | -1.80411 | -51.58698 | 29980 ft | 488 kts | 262° |
| 2026-04-25 01:21 | -1.81312 | -51.65419 | 29977 ft | 488 kts | 262° |
| 2026-04-25 01:21 | -1.82214 | -51.72143 | 29976 ft | 488 kts | 262° |
| 2026-04-25 01:22 | -1.83115 | -51.78860 | 29978 ft | 488 kts | 263° |
| 2026-04-25 01:22 | -1.84015 | -51.85578 | 29976 ft | 488 kts | 262° |
| 2026-04-25 01:23 | -1.84915 | -51.92298 | 29974 ft | 488 kts | 262° |
| 2026-04-25 01:23 | -1.85815 | -51.99015 | 29971 ft | 488 kts | 262° |
| 2026-04-25 01:24 | -1.86715 | -52.05737 | 29971 ft | 488 kts | 263° |
| 2026-04-25 01:24 | -1.87615 | -52.12460 | 29966 ft | 488 kts | 263° |
| 2026-04-25 01:25 | -1.88509 | -52.19143 | 29963 ft | 488 kts | 263° |
| 2026-04-25 01:25 | -1.89415 | -52.25914 | 29958 ft | 488 kts | 263° |
| 2026-04-25 01:26 | -1.90309 | -52.32598 | 29963 ft | 489 kts | 263° |
| 2026-04-25 01:26 | -1.91209 | -52.39332 | 29963 ft | 489 kts | 263° |
| 2026-04-25 01:27 | -1.92116 | -52.46117 | 29969 ft | 489 kts | 263° |
| 2026-04-25 01:27 | -1.93017 | -52.52855 | 29966 ft | 489 kts | 263° |
| 2026-04-25 01:28 | -1.94360 | -52.62916 | 29968 ft | 489 kts | 263° |
| 2026-04-25 01:28 | -1.95258 | -52.69645 | 29965 ft | 488 kts | 263° |
| 2026-04-25 01:29 | -1.96157 | -52.76374 | 29964 ft | 488 kts | 263° |
| 2026-04-25 01:29 | -1.97054 | -52.83102 | 29971 ft | 488 kts | 263° |
| 2026-04-25 01:30 | -1.97951 | -52.89825 | 29966 ft | 488 kts | 263° |
| 2026-04-25 01:30 | -1.98847 | -52.96541 | 29966 ft | 488 kts | 263° |
| 2026-04-25 01:31 | -1.99743 | -53.03261 | 29967 ft | 487 kts | 263° |
| 2026-04-25 01:31 | -2.00638 | -53.09978 | 29963 ft | 487 kts | 263° |
| 2026-04-25 01:32 | -2.01532 | -53.16689 | 29970 ft | 487 kts | 263° |
| 2026-04-25 01:32 | -2.02426 | -53.23400 | 29966 ft | 487 kts | 263° |
| 2026-04-25 01:33 | -2.03319 | -53.30113 | 29969 ft | 487 kts | 263° |
| 2026-04-25 01:33 | -2.04214 | -53.36829 | 29966 ft | 487 kts | 263° |
| 2026-04-25 01:34 | -2.05107 | -53.43546 | 29970 ft | 487 kts | 263° |
| 2026-04-25 01:34 | -2.06000 | -53.50261 | 29971 ft | 487 kts | 263° |
| 2026-04-25 01:35 | -2.06894 | -53.56983 | 29966 ft | 488 kts | 263° |
| 2026-04-25 01:35 | -2.07787 | -53.63701 | 29968 ft | 488 kts | 263° |
| 2026-04-25 01:36 | -2.08680 | -53.70422 | 29967 ft | 488 kts | 263° |
| 2026-04-25 01:36 | -2.09573 | -53.77150 | 29971 ft | 488 kts | 262° |
| 2026-04-25 01:37 | -2.10467 | -53.83876 | 29972 ft | 488 kts | 262° |
| 2026-04-25 01:37 | -2.11354 | -53.90562 | 29968 ft | 488 kts | 262° |
| 2026-04-25 01:38 | -2.12248 | -53.97297 | 29972 ft | 489 kts | 262° |
| 2026-04-25 01:38 | -2.13142 | -54.04032 | 29974 ft | 489 kts | 263° |
| 2026-04-25 01:39 | -2.14034 | -54.10768 | 29970 ft | 489 kts | 263° |
| 2026-04-25 01:39 | -2.14930 | -54.17519 | 29970 ft | 490 kts | 263° |
| 2026-04-25 01:40 | -2.15823 | -54.24266 | 29969 ft | 490 kts | 262° |
| 2026-04-25 01:40 | -2.16718 | -54.31017 | 29969 ft | 490 kts | 263° |
| 2026-04-25 01:41 | -2.17612 | -54.37770 | 29968 ft | 490 kts | 263° |
| 2026-04-25 01:41 | -2.18508 | -54.44534 | 29966 ft | 491 kts | 263° |
| 2026-04-25 01:42 | -2.19403 | -54.51303 | 29965 ft | 491 kts | 263° |
| 2026-04-25 01:42 | -2.20298 | -54.58072 | 29961 ft | 491 kts | 263° |
| 2026-04-25 01:43 | -2.21195 | -54.64848 | 29965 ft | 491 kts | 263° |
| 2026-04-25 01:43 | -2.22089 | -54.71616 | 29962 ft | 491 kts | 263° |
| 2026-04-25 01:44 | -2.22985 | -54.78397 | 29958 ft | 491 kts | 263° |
| 2026-04-25 01:44 | -2.23880 | -54.85172 | 29958 ft | 492 kts | 263° |
| 2026-04-25 01:45 | -2.24775 | -54.91947 | 29961 ft | 492 kts | 263° |
| 2026-04-25 01:45 | -2.25670 | -54.98729 | 29966 ft | 492 kts | 263° |
| 2026-04-25 01:46 | -2.26566 | -55.05513 | 29965 ft | 492 kts | 263° |
| 2026-04-25 01:46 | -2.27454 | -55.12250 | 29964 ft | 492 kts | 263° |
| 2026-04-25 01:47 | -2.28349 | -55.19038 | 29963 ft | 492 kts | 263° |
| 2026-04-25 01:47 | -2.29243 | -55.25823 | 29962 ft | 493 kts | 263° |
| 2026-04-25 01:48 | -2.30139 | -55.32618 | 29964 ft | 493 kts | 263° |
| 2026-04-25 01:48 | -2.31033 | -55.39411 | 29965 ft | 493 kts | 263° |
| 2026-04-25 01:49 | -2.31927 | -55.46202 | 29968 ft | 493 kts | 263° |
| 2026-04-25 01:49 | -2.32821 | -55.52998 | 29965 ft | 493 kts | 263° |
| 2026-04-25 01:50 | -2.33716 | -55.59800 | 29965 ft | 493 kts | 263° |
| 2026-04-25 01:50 | -2.34610 | -55.66594 | 29961 ft | 493 kts | 263° |
| 2026-04-25 01:51 | -2.35503 | -55.73390 | 29963 ft | 493 kts | 263° |
| 2026-04-25 01:51 | -2.36397 | -55.80194 | 29968 ft | 493 kts | 263° |
| 2026-04-25 01:52 | -2.37290 | -55.86991 | 29967 ft | 493 kts | 263° |
| 2026-04-25 01:52 | -2.38183 | -55.93788 | 29968 ft | 493 kts | 263° |
| 2026-04-25 01:53 | -2.39070 | -56.00545 | 29961 ft | 493 kts | 263° |
| 2026-04-25 01:53 | -2.39961 | -56.07340 | 29963 ft | 493 kts | 263° |
| 2026-04-25 01:54 | -2.40853 | -56.14140 | 29962 ft | 493 kts | 263° |
| 2026-04-25 01:54 | -2.41744 | -56.20942 | 29966 ft | 493 kts | 263° |
| 2026-04-25 01:55 | -2.42635 | -56.27740 | 29970 ft | 493 kts | 263° |
| 2026-04-25 01:55 | -2.43525 | -56.34534 | 29971 ft | 493 kts | 263° |
| 2026-04-25 01:56 | -2.44416 | -56.41335 | 29969 ft | 493 kts | 263° |
| 2026-04-25 01:56 | -2.45305 | -56.48134 | 29965 ft | 493 kts | 263° |
| 2026-04-25 01:57 | -2.46640 | -56.58330 | 29961 ft | 493 kts | 263° |
| 2026-04-25 01:58 | -2.47528 | -56.65127 | 29967 ft | 493 kts | 263° |
| 2026-04-25 01:58 | -2.48417 | -56.71920 | 29965 ft | 493 kts | 263° |
| 2026-04-25 01:59 | -2.49304 | -56.78716 | 29967 ft | 493 kts | 263° |
| 2026-04-25 01:59 | -2.50192 | -56.85507 | 29963 ft | 493 kts | 263° |
| 2026-04-25 02:00 | -2.51078 | -56.92301 | 29969 ft | 493 kts | 263° |
| 2026-04-25 02:00 | -2.51965 | -56.99096 | 29965 ft | 493 kts | 263° |
| 2026-04-25 02:01 | -2.52852 | -57.05896 | 29964 ft | 493 kts | 263° |
| 2026-04-25 02:01 | -2.53738 | -57.12692 | 29969 ft | 493 kts | 263° |
| 2026-04-25 02:02 | -2.54624 | -57.19490 | 29967 ft | 493 kts | 263° |
| 2026-04-25 02:02 | -2.55503 | -57.26238 | 29963 ft | 493 kts | 263° |
| 2026-04-25 02:03 | -2.56388 | -57.33030 | 29961 ft | 493 kts | 263° |
| 2026-04-25 02:03 | -2.57271 | -57.39820 | 29962 ft | 492 kts | 263° |
| 2026-04-25 02:04 | -2.58013 | -57.45517 | 29964 ft | 493 kts | 263° |
| 2026-04-25 02:04 | -2.58897 | -57.52316 | 29963 ft | 494 kts | 263° |
| 2026-04-25 02:05 | -2.59783 | -57.59134 | 29966 ft | 494 kts | 263° |
| 2026-04-25 02:05 | -2.60663 | -57.65905 | 29963 ft | 495 kts | 263° |
| 2026-04-25 02:06 | -2.61549 | -57.72729 | 29965 ft | 494 kts | 263° |
| 2026-04-25 02:06 | -2.62435 | -57.79547 | 29965 ft | 494 kts | 263° |
| 2026-04-25 02:07 | -2.63318 | -57.86357 | 29968 ft | 494 kts | 263° |
| 2026-04-25 02:07 | -2.64203 | -57.93174 | 29967 ft | 494 kts | 263° |
| 2026-04-25 02:08 | -2.65086 | -57.99985 | 29962 ft | 493 kts | 263° |
| 2026-04-25 02:08 | -2.65968 | -58.06786 | 29959 ft | 493 kts | 263° |
| 2026-04-25 02:09 | -2.66849 | -58.13588 | 29962 ft | 493 kts | 263° |
| 2026-04-25 02:09 | -2.67729 | -58.20385 | 29958 ft | 493 kts | 263° |
| 2026-04-25 02:10 | -2.68609 | -58.27179 | 29964 ft | 492 kts | 263° |
| 2026-04-25 02:10 | -2.69486 | -58.33964 | 29960 ft | 492 kts | 263° |
| 2026-04-25 02:11 | -2.70364 | -58.40753 | 29965 ft | 492 kts | 263° |
| 2026-04-25 02:11 | -2.71241 | -58.47533 | 29964 ft | 491 kts | 263° |
| 2026-04-25 02:12 | -2.72117 | -58.54309 | 29956 ft | 492 kts | 263° |
| 2026-04-25 02:12 | -2.72989 | -58.61056 | 29959 ft | 492 kts | 263° |
| 2026-04-25 02:13 | -2.73866 | -58.67853 | 29963 ft | 493 kts | 263° |
| 2026-04-25 02:13 | -2.74300 | -58.71215 | 29956 ft | 476 kts | 263° |
| 2026-04-25 02:13 | -2.74676 | -58.74422 | 29655 ft | 457 kts | 265° |
| 2026-04-25 02:13 | -2.75093 | -58.77550 | 29031 ft | 450 kts | 262° |
| 2026-04-25 02:14 | -2.75516 | -58.80593 | 29009 ft | 433 kts | 263° |
| 2026-04-25 02:14 | -2.75843 | -58.83544 | 28765 ft | 423 kts | 265° |
| 2026-04-25 02:14 | -2.76175 | -58.86459 | 28085 ft | 424 kts | 261° |
| 2026-04-25 02:14 | -2.76690 | -58.89385 | 27319 ft | 428 kts | 259° |
| 2026-04-25 02:15 | -2.77226 | -58.92307 | 26829 ft | 425 kts | 261° |
| 2026-04-25 02:15 | -2.77673 | -58.95191 | 26585 ft | 415 kts | 261° |
| 2026-04-25 02:15 | -2.78133 | -58.98019 | 26190 ft | 410 kts | 261° |
| 2026-04-25 02:15 | -2.78520 | -59.00847 | 25553 ft | 412 kts | 261° |
| 2026-04-25 02:16 | -2.78998 | -59.03690 | 24897 ft | 416 kts | 259° |
| 2026-04-25 02:16 | -2.79503 | -59.06529 | 24383 ft | 412 kts | 259° |
| 2026-04-25 02:16 | -2.80017 | -59.09337 | 23844 ft | 409 kts | 259° |
| 2026-04-25 02:16 | -2.80548 | -59.12122 | 23232 ft | 407 kts | 259° |
| 2026-04-25 02:17 | -2.81058 | -59.14894 | 22611 ft | 403 kts | 259° |
| 2026-04-25 02:17 | -2.81617 | -59.17621 | 22090 ft | 397 kts | 257° |
| 2026-04-25 02:17 | -2.82202 | -59.20302 | 21615 ft | 391 kts | 258° |
| 2026-04-25 02:17 | -2.82699 | -59.22962 | 21099 ft | 387 kts | 260° |
| 2026-04-25 02:18 | -2.83147 | -59.25605 | 20527 ft | 385 kts | 261° |
| 2026-04-25 02:18 | -2.83515 | -59.28245 | 19992 ft | 382 kts | 262° |
| 2026-04-25 02:18 | -2.83987 | -59.30844 | 19490 ft | 378 kts | 258° |
| 2026-04-25 02:18 | -2.84524 | -59.33403 | 19058 ft | 373 kts | 258° |
| 2026-04-25 02:19 | -2.85051 | -59.35928 | 18644 ft | 368 kts | 259° |
| 2026-04-25 02:19 | -2.85527 | -59.38395 | 18152 ft | 365 kts | 255° |
| 2026-04-25 02:19 | -2.86220 | -59.40862 | 17292 ft | 371 kts | 251° |
| 2026-04-25 02:19 | -2.87068 | -59.43297 | 16734 ft | 369 kts | 250° |
| 2026-04-25 02:20 | -2.87885 | -59.45713 | 16191 ft | 365 kts | 251° |
| 2026-04-25 02:20 | -2.88621 | -59.48135 | 15615 ft | 363 kts | 254° |
| 2026-04-25 02:20 | -2.89304 | -59.50549 | 15046 ft | 359 kts | 253° |
| 2026-04-25 02:20 | -2.89985 | -59.52942 | 14498 ft | 356 kts | 254° |
| 2026-04-25 02:21 | -2.90619 | -59.55321 | 13965 ft | 352 kts | 254° |
| 2026-04-25 02:21 | -2.91275 | -59.57672 | 13397 ft | 349 kts | 253° |
| 2026-04-25 02:21 | -2.91992 | -59.59978 | 12816 ft | 346 kts | 250° |
| 2026-04-25 02:21 | -2.92818 | -59.62227 | 12266 ft | 342 kts | 250° |
| 2026-04-25 02:22 | -2.93563 | -59.64480 | 11659 ft | 341 kts | 251° |
| 2026-04-25 02:22 | -2.94343 | -59.66733 | 10884 ft | 345 kts | 250° |
| 2026-04-25 02:22 | -2.95170 | -59.68989 | 10192 ft | 346 kts | 249° |
| 2026-04-25 02:22 | -2.96026 | -59.71232 | 9510 ft | 345 kts | 248° |
| 2026-04-25 02:23 | -2.96898 | -59.73463 | 8861 ft | 343 kts | 249° |
| 2026-04-25 02:23 | -2.97692 | -59.75696 | 8220 ft | 340 kts | 251° |
| 2026-04-25 02:23 | -2.98415 | -59.77915 | 7625 ft | 338 kts | 251° |
| 2026-04-25 02:23 | -2.99175 | -59.80164 | 7047 ft | 335 kts | 251° |
| 2026-04-25 02:24 | -2.99958 | -59.82349 | 6484 ft | 333 kts | 249° |
| 2026-04-25 02:24 | -3.00751 | -59.84514 | 5897 ft | 331 kts | 250° |
| 2026-04-25 02:24 | -3.01509 | -59.86642 | 5245 ft | 316 kts | 250° |
| 2026-04-25 02:24 | -3.02247 | -59.88687 | 4320 ft | 310 kts | 250° |
| 2026-04-25 02:25 | -3.02867 | -59.90688 | 3801 ft | 293 kts | 253° |
| 2026-04-25 02:25 | -3.03374 | -59.92595 | 3080 ft | 281 kts | 256° |
| 2026-04-25 02:25 | -3.03741 | -59.94463 | 2449 ft | 258 kts | 262° |
| 2026-04-25 02:25 | -3.03881 | -59.96179 | 1853 ft | 237 kts | 267° |
| 2026-04-25 02:26 | -3.03897 | -59.97718 | 1439 ft | 207 kts | 271° |
| 2026-04-25 02:26 | -3.03862 | -59.99081 | 975 ft | 196 kts | 270° |
| 2026-04-25 02:26 | -3.03869 | -60.00396 | 735 ft | 180 kts | 269° |
| 2026-04-25 02:26 | -3.03866 | -60.01575 | 632 ft | 159 kts | 270° |
| 2026-04-25 02:27 | -3.03867 | -60.02647 | 482 ft | 152 kts | 270° |
| 2026-04-25 02:27 | -3.03860 | -60.03677 | 338 ft | 143 kts | 269° |
| 2026-04-25 02:27 | -3.03860 | -60.04620 | 303 ft | 124 kts | 271° |
| 2026-04-25 02:27 | -3.03854 | -60.05343 | 298 ft | 79 kts | 271° |
| 2026-04-25 02:28 | -3.03848 | -60.05756 | 298 ft | 42 kts | 271° |
| 2026-04-25 02:28 | -3.03845 | -60.05951 | 298 ft | 21 kts | 271° |
| 2026-04-25 02:28 | -3.03842 | -60.06108 | 297 ft | 24 kts | 275° |
| 2026-04-25 02:28 | -3.03814 | -60.06162 | 300 ft | 6 kts | 338° |
| 2026-04-25 02:29 | -3.03748 | -60.06167 | 296 ft | 13 kts | 19° |
| 2026-04-25 02:29 | -3.03696 | -60.06099 | 296 ft | 12 kts | 94° |
| 2026-04-25 02:29 | -3.03696 | -60.06076 | 296 ft | 0 kts | 86° |